sensor_id;sensor_type;location;lat;lon;timestamp;P1;durP1;ratioP1;P2;durP2;ratioP2
77066;SDS011;65994;50.378;15.470;2022-12-18T00:01:14;72.47;;;32.83;;
77066;SDS011;65994;50.378;15.470;2022-12-18T00:03:44;78.93;;;35.92;;
77066;SDS011;65994;50.378;15.470;2022-12-18T00:06:11;79.15;;;35.30;;
77066;SDS011;65994;50.378;15.470;2022-12-18T00:08:39;72.82;;;34.03;;
77066;SDS011;65994;50.378;15.470;2022-12-18T00:11:14;73.90;;;35.08;;
77066;SDS011;65994;50.378;15.470;2022-12-18T00:13:42;68.63;;;33.00;;
77066;SDS011;65994;50.378;15.470;2022-12-18T00:16:10;75.25;;;34.08;;
77066;SDS011;65994;50.378;15.470;2022-12-18T00:18:38;69.90;;;31.00;;
77066;SDS011;65994;50.378;15.470;2022-12-18T00:21:06;71.47;;;32.83;;
77066;SDS011;65994;50.378;15.470;2022-12-18T00:23:33;72.72;;;32.58;;
77066;SDS011;65994;50.378;15.470;2022-12-18T00:26:01;72.32;;;32.70;;
77066;SDS011;65994;50.378;15.470;2022-12-18T00:28:31;71.53;;;32.13;;
77066;SDS011;65994;50.378;15.470;2022-12-18T00:31:08;68.75;;;33.70;;
77066;SDS011;65994;50.378;15.470;2022-12-18T00:33:36;74.15;;;35.90;;
77066;SDS011;65994;50.378;15.470;2022-12-18T00:36:04;76.32;;;36.47;;
77066;SDS011;65994;50.378;15.470;2022-12-18T00:38:45;75.15;;;36.78;;
77066;SDS011;65994;50.378;15.470;2022-12-18T00:41:13;67.65;;;34.33;;
77066;SDS011;65994;50.378;15.470;2022-12-18T00:44:04;76.70;;;37.10;;
77066;SDS011;65994;50.378;15.470;2022-12-18T00:46:31;86.60;;;41.72;;
77066;SDS011;65994;50.378;15.470;2022-12-18T00:48:57;61.78;;;33.13;;
77066;SDS011;65994;50.378;15.470;2022-12-18T00:51:24;68.30;;;35.67;;
77066;SDS011;65994;50.378;15.470;2022-12-18T00:53:51;73.78;;;35.42;;
77066;SDS011;65994;50.378;15.470;2022-12-18T00:56:17;70.35;;;34.80;;
77066;SDS011;65994;50.378;15.470;2022-12-18T00:58:43;70.80;;;32.85;;
77066;SDS011;65994;50.378;15.470;2022-12-18T01:01:10;78.93;;;37.38;;
77066;SDS011;65994;50.378;15.470;2022-12-18T01:03:36;95.57;;;43.00;;
77066;SDS011;65994;50.378;15.470;2022-12-18T01:06:09;79.43;;;38.88;;
77066;SDS011;65994;50.378;15.470;2022-12-18T01:08:37;77.25;;;37.67;;
77066;SDS011;65994;50.378;15.470;2022-12-18T01:11:08;81.72;;;37.90;;
77066;SDS011;65994;50.378;15.470;2022-12-18T01:13:35;81.57;;;38.22;;
77066;SDS011;65994;50.378;15.470;2022-12-18T01:16:02;73.97;;;34.88;;
77066;SDS011;65994;50.378;15.470;2022-12-18T01:18:28;78.95;;;35.28;;
77066;SDS011;65994;50.378;15.470;2022-12-18T01:20:54;63.97;;;31.98;;
77066;SDS011;65994;50.378;15.470;2022-12-18T01:23:20;71.85;;;34.00;;
77066;SDS011;65994;50.378;15.470;2022-12-18T01:25:47;74.57;;;33.40;;
77066;SDS011;65994;50.378;15.470;2022-12-18T01:28:13;68.47;;;34.08;;
77066;SDS011;65994;50.378;15.470;2022-12-18T01:30:39;72.82;;;33.17;;
77066;SDS011;65994;50.378;15.470;2022-12-18T01:33:05;76.07;;;35.13;;
77066;SDS011;65994;50.378;15.470;2022-12-18T01:35:32;74.13;;;36.30;;
77066;SDS011;65994;50.378;15.470;2022-12-18T01:37:58;71.95;;;35.28;;
77066;SDS011;65994;50.378;15.470;2022-12-18T01:40:24;68.07;;;35.17;;
77066;SDS011;65994;50.378;15.470;2022-12-18T01:42:53;76.65;;;35.08;;
77066;SDS011;65994;50.378;15.470;2022-12-18T01:47:53;72.38;;;35.47;;
77066;SDS011;65994;50.378;15.470;2022-12-18T01:50:30;75.10;;;36.03;;
77066;SDS011;65994;50.378;15.470;2022-12-18T01:53:10;71.45;;;33.40;;
77066;SDS011;65994;50.378;15.470;2022-12-18T01:55:43;69.40;;;32.70;;
77066;SDS011;65994;50.378;15.470;2022-12-18T01:58:12;68.00;;;33.55;;
77066;SDS011;65994;50.378;15.470;2022-12-18T02:00:39;71.55;;;32.83;;
77066;SDS011;65994;50.378;15.470;2022-12-18T02:03:05;77.55;;;34.40;;
77066;SDS011;65994;50.378;15.470;2022-12-18T02:05:45;69.03;;;33.80;;
77066;SDS011;65994;50.378;15.470;2022-12-18T02:11:11;69.07;;;30.75;;
77066;SDS011;65994;50.378;15.470;2022-12-18T02:13:58;71.32;;;34.05;;
77066;SDS011;65994;50.378;15.470;2022-12-18T02:16:40;64.68;;;31.27;;
77066;SDS011;65994;50.378;15.470;2022-12-18T02:27:38;71.22;;;33.47;;
77066;SDS011;65994;50.378;15.470;2022-12-18T02:30:07;71.43;;;31.90;;
77066;SDS011;65994;50.378;15.470;2022-12-18T02:32:35;76.32;;;34.50;;
77066;SDS011;65994;50.378;15.470;2022-12-18T02:35:06;71.20;;;32.65;;
77066;SDS011;65994;50.378;15.470;2022-12-18T02:37:36;76.43;;;35.05;;
77066;SDS011;65994;50.378;15.470;2022-12-18T02:40:05;74.25;;;34.53;;
77066;SDS011;65994;50.378;15.470;2022-12-18T02:42:32;72.10;;;33.42;;
77066;SDS011;65994;50.378;15.470;2022-12-18T02:44:58;78.22;;;34.00;;
77066;SDS011;65994;50.378;15.470;2022-12-18T02:47:27;76.70;;;34.13;;
77066;SDS011;65994;50.378;15.470;2022-12-18T02:52:50;75.63;;;35.58;;
77066;SDS011;65994;50.378;15.470;2022-12-18T03:00:25;77.75;;;33.75;;
77066;SDS011;65994;50.378;15.470;2022-12-18T03:02:59;84.30;;;34.78;;
77066;SDS011;65994;50.378;15.470;2022-12-18T03:05:29;89.68;;;34.78;;
77066;SDS011;65994;50.378;15.470;2022-12-18T03:08:03;88.93;;;34.42;;
77066;SDS011;65994;50.378;15.470;2022-12-18T03:10:34;78.72;;;31.48;;
77066;SDS011;65994;50.378;15.470;2022-12-18T03:13:05;78.80;;;30.98;;
77066;SDS011;65994;50.378;15.470;2022-12-18T03:15:37;75.20;;;33.97;;
77066;SDS011;65994;50.378;15.470;2022-12-18T03:18:10;88.78;;;36.38;;
77066;SDS011;65994;50.378;15.470;2022-12-18T03:20:40;93.25;;;36.88;;
77066;SDS011;65994;50.378;15.470;2022-12-18T03:23:11;88.38;;;34.55;;
77066;SDS011;65994;50.378;15.470;2022-12-18T03:25:42;92.78;;;33.35;;
77066;SDS011;65994;50.378;15.470;2022-12-18T03:28:13;95.05;;;32.92;;
77066;SDS011;65994;50.378;15.470;2022-12-18T03:30:43;98.97;;;33.88;;
77066;SDS011;65994;50.378;15.470;2022-12-18T03:33:13;93.15;;;33.78;;
77066;SDS011;65994;50.378;15.470;2022-12-18T03:35:45;88.40;;;33.58;;
77066;SDS011;65994;50.378;15.470;2022-12-18T03:38:11;88.70;;;34.08;;
77066;SDS011;65994;50.378;15.470;2022-12-18T03:40:41;90.53;;;34.53;;
77066;SDS011;65994;50.378;15.470;2022-12-18T03:43:20;81.53;;;30.83;;
77066;SDS011;65994;50.378;15.470;2022-12-18T03:45:54;81.22;;;29.38;;
77066;SDS011;65994;50.378;15.470;2022-12-18T03:48:46;80.68;;;29.40;;
77066;SDS011;65994;50.378;15.470;2022-12-18T03:51:18;78.60;;;28.48;;
77066;SDS011;65994;50.378;15.470;2022-12-18T03:54:02;87.28;;;28.35;;
77066;SDS011;65994;50.378;15.470;2022-12-18T03:56:31;74.35;;;25.88;;
77066;SDS011;65994;50.378;15.470;2022-12-18T03:59:01;82.63;;;28.77;;
77066;SDS011;65994;50.378;15.470;2022-12-18T04:01:31;73.18;;;27.45;;
77066;SDS011;65994;50.378;15.470;2022-12-18T04:06:28;68.78;;;27.77;;
77066;SDS011;65994;50.378;15.470;2022-12-18T04:08:56;74.70;;;27.30;;
77066;SDS011;65994;50.378;15.470;2022-12-18T04:11:24;74.93;;;28.45;;
77066;SDS011;65994;50.378;15.470;2022-12-18T04:13:50;74.18;;;27.58;;
77066;SDS011;65994;50.378;15.470;2022-12-18T04:16:22;76.55;;;28.55;;
77066;SDS011;65994;50.378;15.470;2022-12-18T04:18:48;66.85;;;27.33;;
77066;SDS011;65994;50.378;15.470;2022-12-18T04:21:14;73.40;;;28.02;;
77066;SDS011;65994;50.378;15.470;2022-12-18T04:23:40;68.55;;;26.95;;
77066;SDS011;65994;50.378;15.470;2022-12-18T04:26:06;58.33;;;23.55;;
77066;SDS011;65994;50.378;15.470;2022-12-18T04:28:33;63.53;;;27.08;;
77066;SDS011;65994;50.378;15.470;2022-12-18T04:30:59;62.40;;;24.98;;
77066;SDS011;65994;50.378;15.470;2022-12-18T04:33:25;64.57;;;25.95;;
77066;SDS011;65994;50.378;15.470;2022-12-18T04:35:51;59.95;;;25.33;;
77066;SDS011;65994;50.378;15.470;2022-12-18T04:38:18;69.43;;;26.88;;
77066;SDS011;65994;50.378;15.470;2022-12-18T04:40:44;62.38;;;26.58;;
77066;SDS011;65994;50.378;15.470;2022-12-18T04:43:10;57.47;;;25.27;;
77066;SDS011;65994;50.378;15.470;2022-12-18T04:45:36;60.40;;;24.75;;
77066;SDS011;65994;50.378;15.470;2022-12-18T04:48:03;66.13;;;28.58;;
77066;SDS011;65994;50.378;15.470;2022-12-18T04:50:30;62.95;;;26.15;;
77066;SDS011;65994;50.378;15.470;2022-12-18T04:52:57;62.78;;;26.73;;
77066;SDS011;65994;50.378;15.470;2022-12-18T04:55:23;65.03;;;26.73;;
77066;SDS011;65994;50.378;15.470;2022-12-18T04:57:49;59.13;;;24.15;;
77066;SDS011;65994;50.378;15.470;2022-12-18T05:00:15;65.85;;;26.70;;
77066;SDS011;65994;50.378;15.470;2022-12-18T05:02:42;75.53;;;30.13;;
77066;SDS011;65994;50.378;15.470;2022-12-18T05:05:08;62.72;;;24.58;;
77066;SDS011;65994;50.378;15.470;2022-12-18T05:07:35;64.88;;;24.50;;
77066;SDS011;65994;50.378;15.470;2022-12-18T05:10:01;68.85;;;25.85;;
77066;SDS011;65994;50.378;15.470;2022-12-18T05:12:28;68.63;;;26.25;;
77066;SDS011;65994;50.378;15.470;2022-12-18T05:14:54;67.60;;;25.63;;
77066;SDS011;65994;50.378;15.470;2022-12-18T05:17:20;77.15;;;26.92;;
77066;SDS011;65994;50.378;15.470;2022-12-18T05:19:46;65.28;;;26.33;;
77066;SDS011;65994;50.378;15.470;2022-12-18T05:22:13;71.43;;;26.83;;
77066;SDS011;65994;50.378;15.470;2022-12-18T05:24:39;70.53;;;26.63;;
77066;SDS011;65994;50.378;15.470;2022-12-18T05:27:05;63.75;;;24.92;;
77066;SDS011;65994;50.378;15.470;2022-12-18T05:29:32;68.20;;;29.50;;
77066;SDS011;65994;50.378;15.470;2022-12-18T05:31:58;63.22;;;25.40;;
77066;SDS011;65994;50.378;15.470;2022-12-18T05:34:24;77.72;;;26.73;;
77066;SDS011;65994;50.378;15.470;2022-12-18T05:36:50;74.25;;;27.48;;
77066;SDS011;65994;50.378;15.470;2022-12-18T05:39:16;80.63;;;27.73;;
77066;SDS011;65994;50.378;15.470;2022-12-18T05:41:43;72.95;;;25.63;;
77066;SDS011;65994;50.378;15.470;2022-12-18T05:44:09;86.25;;;30.00;;
77066;SDS011;65994;50.378;15.470;2022-12-18T05:46:35;70.53;;;28.33;;
77066;SDS011;65994;50.378;15.470;2022-12-18T05:49:02;74.40;;;25.58;;
77066;SDS011;65994;50.378;15.470;2022-12-18T05:51:28;80.95;;;28.55;;
77066;SDS011;65994;50.378;15.470;2022-12-18T05:53:54;85.20;;;29.15;;
77066;SDS011;65994;50.378;15.470;2022-12-18T05:56:21;79.00;;;26.40;;
77066;SDS011;65994;50.378;15.470;2022-12-18T05:58:50;86.35;;;29.55;;
77066;SDS011;65994;50.378;15.470;2022-12-18T06:01:20;90.70;;;28.92;;
77066;SDS011;65994;50.378;15.470;2022-12-18T06:03:52;91.20;;;28.02;;
77066;SDS011;65994;50.378;15.470;2022-12-18T06:06:20;81.50;;;29.05;;
77066;SDS011;65994;50.378;15.470;2022-12-18T06:08:48;85.88;;;28.67;;
77066;SDS011;65994;50.378;15.470;2022-12-18T06:11:16;74.13;;;27.92;;
77066;SDS011;65994;50.378;15.470;2022-12-18T06:13:44;67.47;;;25.48;;
77066;SDS011;65994;50.378;15.470;2022-12-18T06:16:10;84.30;;;27.65;;
77066;SDS011;65994;50.378;15.470;2022-12-18T06:18:36;74.95;;;25.85;;
77066;SDS011;65994;50.378;15.470;2022-12-18T06:21:03;86.43;;;28.73;;
77066;SDS011;65994;50.378;15.470;2022-12-18T06:23:29;84.65;;;29.05;;
77066;SDS011;65994;50.378;15.470;2022-12-18T06:25:55;89.10;;;26.83;;
77066;SDS011;65994;50.378;15.470;2022-12-18T06:28:21;95.57;;;28.42;;
77066;SDS011;65994;50.378;15.470;2022-12-18T06:30:48;98.00;;;30.00;;
77066;SDS011;65994;50.378;15.470;2022-12-18T06:33:15;90.57;;;25.38;;
77066;SDS011;65994;50.378;15.470;2022-12-18T06:35:42;90.53;;;27.17;;
77066;SDS011;65994;50.378;15.470;2022-12-18T06:38:08;78.30;;;26.55;;
77066;SDS011;65994;50.378;15.470;2022-12-18T06:40:36;100.88;;;30.63;;
77066;SDS011;65994;50.378;15.470;2022-12-18T06:43:03;106.95;;;29.60;;
77066;SDS011;65994;50.378;15.470;2022-12-18T06:45:30;84.28;;;28.85;;
77066;SDS011;65994;50.378;15.470;2022-12-18T06:47:56;98.88;;;27.63;;
77066;SDS011;65994;50.378;15.470;2022-12-18T06:50:22;98.22;;;28.50;;
77066;SDS011;65994;50.378;15.470;2022-12-18T06:52:48;88.40;;;28.77;;
77066;SDS011;65994;50.378;15.470;2022-12-18T06:55:14;95.78;;;30.85;;
77066;SDS011;65994;50.378;15.470;2022-12-18T06:57:41;97.82;;;30.52;;
77066;SDS011;65994;50.378;15.470;2022-12-18T07:00:07;83.88;;;25.27;;
77066;SDS011;65994;50.378;15.470;2022-12-18T07:02:33;84.25;;;27.40;;
77066;SDS011;65994;50.378;15.470;2022-12-18T07:05:00;89.53;;;27.00;;
77066;SDS011;65994;50.378;15.470;2022-12-18T07:07:26;93.32;;;25.77;;
77066;SDS011;65994;50.378;15.470;2022-12-18T07:09:53;88.10;;;29.38;;
77066;SDS011;65994;50.378;15.470;2022-12-18T07:12:19;81.10;;;28.52;;
77066;SDS011;65994;50.378;15.470;2022-12-18T07:14:45;77.55;;;26.05;;
77066;SDS011;65994;50.378;15.470;2022-12-18T07:17:11;72.63;;;26.25;;
77066;SDS011;65994;50.378;15.470;2022-12-18T07:19:38;64.30;;;26.75;;
77066;SDS011;65994;50.378;15.470;2022-12-18T07:22:04;80.47;;;28.13;;
77066;SDS011;65994;50.378;15.470;2022-12-18T07:24:30;58.88;;;22.95;;
77066;SDS011;65994;50.378;15.470;2022-12-18T07:26:58;69.18;;;24.05;;
77066;SDS011;65994;50.378;15.470;2022-12-18T07:29:25;74.40;;;25.85;;
77066;SDS011;65994;50.378;15.470;2022-12-18T07:31:51;70.63;;;24.33;;
77066;SDS011;65994;50.378;15.470;2022-12-18T07:34:17;53.13;;;19.77;;
77066;SDS011;65994;50.378;15.470;2022-12-18T07:36:43;53.80;;;22.52;;
77066;SDS011;65994;50.378;15.470;2022-12-18T07:39:10;57.17;;;22.25;;
77066;SDS011;65994;50.378;15.470;2022-12-18T07:41:37;53.70;;;21.73;;
77066;SDS011;65994;50.378;15.470;2022-12-18T07:44:04;53.35;;;20.35;;
77066;SDS011;65994;50.378;15.470;2022-12-18T07:46:30;55.55;;;21.92;;
77066;SDS011;65994;50.378;15.470;2022-12-18T07:48:57;56.42;;;21.85;;
77066;SDS011;65994;50.378;15.470;2022-12-18T07:51:23;52.40;;;24.15;;
77066;SDS011;65994;50.378;15.470;2022-12-18T07:53:49;59.92;;;23.80;;
77066;SDS011;65994;50.378;15.470;2022-12-18T07:56:16;59.78;;;22.88;;
77066;SDS011;65994;50.378;15.470;2022-12-18T07:58:42;52.97;;;22.80;;
77066;SDS011;65994;50.378;15.470;2022-12-18T08:01:10;56.10;;;23.77;;
77066;SDS011;65994;50.378;15.470;2022-12-18T08:03:38;56.40;;;23.25;;
77066;SDS011;65994;50.378;15.470;2022-12-18T08:06:06;50.33;;;18.63;;
77066;SDS011;65994;50.378;15.470;2022-12-18T08:08:34;51.78;;;20.35;;
77066;SDS011;65994;50.378;15.470;2022-12-18T08:11:01;50.92;;;18.17;;
77066;SDS011;65994;50.378;15.470;2022-12-18T08:13:28;41.30;;;19.67;;
77066;SDS011;65994;50.378;15.470;2022-12-18T08:16:06;63.85;;;24.63;;
77066;SDS011;65994;50.378;15.470;2022-12-18T08:18:34;59.45;;;22.63;;
77066;SDS011;65994;50.378;15.470;2022-12-18T08:21:11;55.90;;;23.25;;
77066;SDS011;65994;50.378;15.470;2022-12-18T08:23:39;58.35;;;24.23;;
77066;SDS011;65994;50.378;15.470;2022-12-18T08:26:05;55.45;;;23.10;;
77066;SDS011;65994;50.378;15.470;2022-12-18T08:28:32;47.47;;;20.35;;
77066;SDS011;65994;50.378;15.470;2022-12-18T08:30:58;55.67;;;23.92;;
77066;SDS011;65994;50.378;15.470;2022-12-18T08:33:24;54.08;;;22.92;;
77066;SDS011;65994;50.378;15.470;2022-12-18T08:35:52;53.60;;;21.83;;
77066;SDS011;65994;50.378;15.470;2022-12-18T08:38:18;62.45;;;26.90;;
77066;SDS011;65994;50.378;15.470;2022-12-18T08:40:44;66.28;;;23.17;;
77066;SDS011;65994;50.378;15.470;2022-12-18T08:43:11;53.67;;;22.35;;
77066;SDS011;65994;50.378;15.470;2022-12-18T08:45:56;65.70;;;21.50;;
77066;SDS011;65994;50.378;15.470;2022-12-18T08:48:22;52.28;;;21.10;;
77066;SDS011;65994;50.378;15.470;2022-12-18T08:50:55;55.42;;;25.20;;
77066;SDS011;65994;50.378;15.470;2022-12-18T08:53:24;69.03;;;22.98;;
77066;SDS011;65994;50.378;15.470;2022-12-18T08:55:51;47.00;;;19.23;;
77066;SDS011;65994;50.378;15.470;2022-12-18T08:58:18;56.33;;;23.77;;
77066;SDS011;65994;50.378;15.470;2022-12-18T09:00:45;60.00;;;22.20;;
77066;SDS011;65994;50.378;15.470;2022-12-18T09:03:14;60.83;;;23.52;;
77066;SDS011;65994;50.378;15.470;2022-12-18T09:05:42;61.65;;;20.20;;
77066;SDS011;65994;50.378;15.470;2022-12-18T09:08:11;48.47;;;19.63;;
77066;SDS011;65994;50.378;15.470;2022-12-18T09:10:44;60.40;;;24.83;;
77066;SDS011;65994;50.378;15.470;2022-12-18T09:13:11;58.03;;;25.42;;
77066;SDS011;65994;50.378;15.470;2022-12-18T09:15:45;52.25;;;24.73;;
77066;SDS011;65994;50.378;15.470;2022-12-18T09:18:14;60.63;;;23.27;;
77066;SDS011;65994;50.378;15.470;2022-12-18T09:20:41;55.97;;;23.10;;
77066;SDS011;65994;50.378;15.470;2022-12-18T09:23:08;50.70;;;21.05;;
77066;SDS011;65994;50.378;15.470;2022-12-18T09:25:35;60.38;;;22.63;;
77066;SDS011;65994;50.378;15.470;2022-12-18T09:28:09;55.33;;;20.33;;
77066;SDS011;65994;50.378;15.470;2022-12-18T09:30:38;48.83;;;19.45;;
77066;SDS011;65994;50.378;15.470;2022-12-18T09:33:05;65.10;;;26.75;;
77066;SDS011;65994;50.378;15.470;2022-12-18T09:35:31;44.63;;;18.77;;
77066;SDS011;65994;50.378;15.470;2022-12-18T09:37:58;50.42;;;18.00;;
77066;SDS011;65994;50.378;15.470;2022-12-18T09:40:25;51.50;;;20.83;;
77066;SDS011;65994;50.378;15.470;2022-12-18T09:42:57;46.40;;;20.80;;
77066;SDS011;65994;50.378;15.470;2022-12-18T09:45:26;59.20;;;24.38;;
77066;SDS011;65994;50.378;15.470;2022-12-18T09:50:29;43.33;;;18.15;;
77066;SDS011;65994;50.378;15.470;2022-12-18T09:53:11;49.70;;;22.90;;
77066;SDS011;65994;50.378;15.470;2022-12-18T09:55:44;55.70;;;20.95;;
77066;SDS011;65994;50.378;15.470;2022-12-18T09:58:17;57.72;;;21.65;;
77066;SDS011;65994;50.378;15.470;2022-12-18T10:00:52;56.45;;;20.75;;
77066;SDS011;65994;50.378;15.470;2022-12-18T10:03:19;56.60;;;19.70;;
77066;SDS011;65994;50.378;15.470;2022-12-18T10:08:22;60.65;;;21.85;;
77066;SDS011;65994;50.378;15.470;2022-12-18T10:10:50;57.78;;;23.58;;
77066;SDS011;65994;50.378;15.470;2022-12-18T10:16:18;50.22;;;21.15;;
77066;SDS011;65994;50.378;15.470;2022-12-18T10:21:53;58.50;;;21.98;;
77066;SDS011;65994;50.378;15.470;2022-12-18T10:27:24;44.90;;;20.23;;
77066;SDS011;65994;50.378;15.470;2022-12-18T10:29:52;43.72;;;16.35;;
77066;SDS011;65994;50.378;15.470;2022-12-18T10:32:24;48.00;;;18.73;;
77066;SDS011;65994;50.378;15.470;2022-12-18T10:34:54;59.65;;;22.33;;
77066;SDS011;65994;50.378;15.470;2022-12-18T10:37:23;48.63;;;20.50;;
77066;SDS011;65994;50.378;15.470;2022-12-18T10:42:41;45.70;;;17.10;;
77066;SDS011;65994;50.378;15.470;2022-12-18T10:47:43;54.25;;;22.77;;
77066;SDS011;65994;50.378;15.470;2022-12-18T10:50:19;54.05;;;22.17;;
77066;SDS011;65994;50.378;15.470;2022-12-18T10:52:52;62.25;;;23.85;;
77066;SDS011;65994;50.378;15.470;2022-12-18T10:55:24;56.70;;;22.48;;
77066;SDS011;65994;50.378;15.470;2022-12-18T10:58:05;55.58;;;23.90;;
77066;SDS011;65994;50.378;15.470;2022-12-18T11:01:10;61.00;;;23.48;;
77066;SDS011;65994;50.378;15.470;2022-12-18T11:03:46;45.63;;;21.02;;
77066;SDS011;65994;50.378;15.470;2022-12-18T11:06:25;55.50;;;22.80;;
77066;SDS011;65994;50.378;15.470;2022-12-18T11:09:01;56.10;;;22.73;;
77066;SDS011;65994;50.378;15.470;2022-12-18T11:11:31;59.00;;;21.63;;
77066;SDS011;65994;50.378;15.470;2022-12-18T11:16:31;59.95;;;23.40;;
77066;SDS011;65994;50.378;15.470;2022-12-18T11:19:36;52.30;;;22.83;;
77066;SDS011;65994;50.378;15.470;2022-12-18T11:21:54;57.85;;;22.10;;
77066;SDS011;65994;50.378;15.470;2022-12-18T11:26:48;51.22;;;21.00;;
77066;SDS011;65994;50.378;15.470;2022-12-18T11:29:18;53.05;;;20.05;;
77066;SDS011;65994;50.378;15.470;2022-12-18T11:31:49;49.03;;;20.90;;
77066;SDS011;65994;50.378;15.470;2022-12-18T11:34:26;47.83;;;21.52;;
77066;SDS011;65994;50.378;15.470;2022-12-18T11:36:56;55.47;;;20.42;;
77066;SDS011;65994;50.378;15.470;2022-12-18T11:39:41;56.67;;;24.08;;
77066;SDS011;65994;50.378;15.470;2022-12-18T11:42:23;55.92;;;20.58;;
77066;SDS011;65994;50.378;15.470;2022-12-18T11:47:40;61.83;;;25.88;;
77066;SDS011;65994;50.378;15.470;2022-12-18T11:50:18;51.25;;;18.50;;
77066;SDS011;65994;50.378;15.470;2022-12-18T11:52:48;40.85;;;18.08;;
77066;SDS011;65994;50.378;15.470;2022-12-18T12:01:09;41.80;;;17.52;;
77066;SDS011;65994;50.378;15.470;2022-12-18T12:11:53;36.92;;;16.80;;
77066;SDS011;65994;50.378;15.470;2022-12-18T12:20:15;37.10;;;16.60;;
77066;SDS011;65994;50.378;15.470;2022-12-18T12:25:44;28.33;;;14.63;;
77066;SDS011;65994;50.378;15.470;2022-12-18T12:28:19;40.42;;;20.58;;
77066;SDS011;65994;50.378;15.470;2022-12-18T12:38:42;41.95;;;18.25;;
77066;SDS011;65994;50.378;15.470;2022-12-18T12:41:13;36.08;;;17.67;;
77066;SDS011;65994;50.378;15.470;2022-12-18T12:44:03;44.75;;;23.83;;
77066;SDS011;65994;50.378;15.470;2022-12-18T12:46:37;216.93;;;99.18;;
77066;SDS011;65994;50.378;15.470;2022-12-18T12:49:09;172.43;;;72.75;;
77066;SDS011;65994;50.378;15.470;2022-12-18T12:51:43;163.25;;;76.32;;
77066;SDS011;65994;50.378;15.470;2022-12-18T12:54:20;198.20;;;86.45;;
77066;SDS011;65994;50.378;15.470;2022-12-18T12:57:01;87.20;;;38.53;;
